Terminal Aerodrome Forecast
Issued by NWS

Home | Current Version | Previous Version | Text Only | Print | Product List | Glossary On
Versions: 1 2 3 4 5 6 7 8 9 10 11 12 13 14
013
FTUS45 KREV 061122
TAFMMH
TAF
KMMH 061122Z 0612/0712 26019G31KT P6SM SCT180
     FM070300 28012G20KT P6SM BKN200=

USA.gov is the U.S. government's official web portal to all federal, state and local government web resources and services.